sensor_id;sensor_type;location;lat;lon;timestamp;P1;durP1;ratioP1;P2;durP2;ratioP2
13408;SDS011;6775;49.574;11.170;2023-10-31T00:01:07;4.23;;;3.83;;
13408;SDS011;6775;49.574;11.170;2023-10-31T00:03:36;6.67;;;5.13;;
13408;SDS011;6775;49.574;11.170;2023-10-31T00:06:06;6.53;;;5.93;;
13408;SDS011;6775;49.574;11.170;2023-10-31T00:08:34;6.07;;;5.03;;
13408;SDS011;6775;49.574;11.170;2023-10-31T00:11:03;5.20;;;4.70;;
13408;SDS011;6775;49.574;11.170;2023-10-31T00:13:31;4.87;;;4.37;;
13408;SDS011;6775;49.574;11.170;2023-10-31T00:15:59;5.37;;;4.23;;
13408;SDS011;6775;49.574;11.170;2023-10-31T00:18:27;5.27;;;4.73;;
13408;SDS011;6775;49.574;11.170;2023-10-31T00:20:57;5.33;;;4.60;;
13408;SDS011;6775;49.574;11.170;2023-10-31T00:23:25;4.67;;;4.27;;
13408;SDS011;6775;49.574;11.170;2023-10-31T00:25:53;4.53;;;4.03;;
13408;SDS011;6775;49.574;11.170;2023-10-31T00:28:21;5.10;;;3.80;;
13408;SDS011;6775;49.574;11.170;2023-10-31T00:30:49;4.33;;;3.43;;
13408;SDS011;6775;49.574;11.170;2023-10-31T00:33:17;4.77;;;4.20;;
13408;SDS011;6775;49.574;11.170;2023-10-31T00:35:45;4.47;;;3.57;;
13408;SDS011;6775;49.574;11.170;2023-10-31T00:38:15;3.70;;;3.07;;
13408;SDS011;6775;49.574;11.170;2023-10-31T00:40:43;3.67;;;3.37;;
13408;SDS011;6775;49.574;11.170;2023-10-31T00:43:11;3.20;;;2.90;;
13408;SDS011;6775;49.574;11.170;2023-10-31T00:45:39;3.70;;;2.77;;
13408;SDS011;6775;49.574;11.170;2023-10-31T00:48:07;5.50;;;3.60;;
13408;SDS011;6775;49.574;11.170;2023-10-31T00:50:35;3.00;;;2.60;;
13408;SDS011;6775;49.574;11.170;2023-10-31T00:53:03;3.60;;;3.30;;
13408;SDS011;6775;49.574;11.170;2023-10-31T00:55:33;2.90;;;2.60;;
13408;SDS011;6775;49.574;11.170;2023-10-31T00:58:01;2.63;;;2.43;;
13408;SDS011;6775;49.574;11.170;2023-10-31T01:00:29;2.50;;;2.30;;
13408;SDS011;6775;49.574;11.170;2023-10-31T01:02:57;3.10;;;2.73;;
13408;SDS011;6775;49.574;11.170;2023-10-31T01:05:26;3.13;;;2.50;;
13408;SDS011;6775;49.574;11.170;2023-10-31T01:07:54;2.87;;;2.57;;
13408;SDS011;6775;49.574;11.170;2023-10-31T01:10:22;2.50;;;2.30;;
13408;SDS011;6775;49.574;11.170;2023-10-31T01:12:52;2.60;;;2.40;;
13408;SDS011;6775;49.574;11.170;2023-10-31T01:15:20;2.90;;;2.60;;
13408;SDS011;6775;49.574;11.170;2023-10-31T01:17:48;3.30;;;3.00;;
13408;SDS011;6775;49.574;11.170;2023-10-31T01:20:16;3.43;;;2.93;;
13408;SDS011;6775;49.574;11.170;2023-10-31T01:22:44;3.00;;;2.80;;
13408;SDS011;6775;49.574;11.170;2023-10-31T01:25:12;2.50;;;2.30;;
13408;SDS011;6775;49.574;11.170;2023-10-31T01:27:41;2.70;;;2.50;;
13408;SDS011;6775;49.574;11.170;2023-10-31T01:30:11;4.00;;;1.97;;
13408;SDS011;6775;49.574;11.170;2023-10-31T01:32:40;2.80;;;2.00;;
13408;SDS011;6775;49.574;11.170;2023-10-31T01:35:09;1.97;;;1.57;;
13408;SDS011;6775;49.574;11.170;2023-10-31T01:37:37;1.50;;;1.40;;
13408;SDS011;6775;49.574;11.170;2023-10-31T01:40:06;2.03;;;1.70;;
13408;SDS011;6775;49.574;11.170;2023-10-31T01:42:36;2.00;;;1.80;;
13408;SDS011;6775;49.574;11.170;2023-10-31T01:45:04;2.13;;;1.93;;
13408;SDS011;6775;49.574;11.170;2023-10-31T01:47:35;1.53;;;1.40;;
13408;SDS011;6775;49.574;11.170;2023-10-31T01:50:03;1.70;;;1.60;;
13408;SDS011;6775;49.574;11.170;2023-10-31T01:52:36;1.40;;;1.30;;
13408;SDS011;6775;49.574;11.170;2023-10-31T01:55:05;1.60;;;1.50;;
13408;SDS011;6775;49.574;11.170;2023-10-31T01:57:34;1.60;;;1.50;;
13408;SDS011;6775;49.574;11.170;2023-10-31T02:00:02;2.07;;;1.87;;
13408;SDS011;6775;49.574;11.170;2023-10-31T02:02:32;1.90;;;1.80;;
13408;SDS011;6775;49.574;11.170;2023-10-31T02:05:05;1.97;;;1.73;;
13408;SDS011;6775;49.574;11.170;2023-10-31T02:07:34;1.70;;;1.60;;
13408;SDS011;6775;49.574;11.170;2023-10-31T02:10:02;2.23;;;2.03;;
13408;SDS011;6775;49.574;11.170;2023-10-31T02:12:31;2.20;;;2.03;;
13408;SDS011;6775;49.574;11.170;2023-10-31T02:15:01;1.70;;;1.60;;
13408;SDS011;6775;49.574;11.170;2023-10-31T02:17:30;1.60;;;1.50;;
13408;SDS011;6775;49.574;11.170;2023-10-31T02:19:59;1.50;;;1.40;;
13408;SDS011;6775;49.574;11.170;2023-10-31T02:22:29;1.30;;;1.20;;
13408;SDS011;6775;49.574;11.170;2023-10-31T02:24:57;1.10;;;1.00;;
13408;SDS011;6775;49.574;11.170;2023-10-31T02:27:25;1.10;;;1.00;;
13408;SDS011;6775;49.574;11.170;2023-10-31T02:29:53;2.27;;;1.30;;
13408;SDS011;6775;49.574;11.170;2023-10-31T02:32:21;1.07;;;0.97;;
13408;SDS011;6775;49.574;11.170;2023-10-31T02:34:49;1.20;;;0.90;;
13408;SDS011;6775;49.574;11.170;2023-10-31T02:37:18;0.70;;;0.70;;
13408;SDS011;6775;49.574;11.170;2023-10-31T02:39:47;0.70;;;0.70;;
13408;SDS011;6775;49.574;11.170;2023-10-31T02:42:15;0.93;;;0.80;;
13408;SDS011;6775;49.574;11.170;2023-10-31T02:44:43;1.27;;;0.80;;
13408;SDS011;6775;49.574;11.170;2023-10-31T02:47:11;0.83;;;0.83;;
13408;SDS011;6775;49.574;11.170;2023-10-31T02:49:39;0.60;;;0.50;;
13408;SDS011;6775;49.574;11.170;2023-10-31T02:52:07;0.70;;;0.50;;
13408;SDS011;6775;49.574;11.170;2023-10-31T02:54:35;0.50;;;0.50;;
13408;SDS011;6775;49.574;11.170;2023-10-31T02:57:05;0.50;;;0.43;;
13408;SDS011;6775;49.574;11.170;2023-10-31T02:59:33;0.60;;;0.60;;
13408;SDS011;6775;49.574;11.170;2023-10-31T03:02:01;0.50;;;0.50;;
13408;SDS011;6775;49.574;11.170;2023-10-31T03:04:30;0.50;;;0.50;;
13408;SDS011;6775;49.574;11.170;2023-10-31T03:06:58;0.50;;;0.47;;
13408;SDS011;6775;49.574;11.170;2023-10-31T03:09:26;1.37;;;0.50;;
13408;SDS011;6775;49.574;11.170;2023-10-31T03:11:54;1.30;;;0.50;;
13408;SDS011;6775;49.574;11.170;2023-10-31T03:14:24;0.40;;;0.40;;
13408;SDS011;6775;49.574;11.170;2023-10-31T03:16:52;0.40;;;0.40;;
13408;SDS011;6775;49.574;11.170;2023-10-31T03:19:20;0.57;;;0.50;;
13408;SDS011;6775;49.574;11.170;2023-10-31T03:21:48;1.50;;;0.40;;
13408;SDS011;6775;49.574;11.170;2023-10-31T03:24:16;0.63;;;0.50;;
13408;SDS011;6775;49.574;11.170;2023-10-31T03:26:44;0.57;;;0.50;;
13408;SDS011;6775;49.574;11.170;2023-10-31T03:29:12;0.60;;;0.60;;
13408;SDS011;6775;49.574;11.170;2023-10-31T03:31:42;1.37;;;0.60;;
13408;SDS011;6775;49.574;11.170;2023-10-31T03:34:10;0.47;;;0.47;;
13408;SDS011;6775;49.574;11.170;2023-10-31T03:36:38;0.50;;;0.50;;
13408;SDS011;6775;49.574;11.170;2023-10-31T03:39:06;1.57;;;0.50;;
13408;SDS011;6775;49.574;11.170;2023-10-31T03:41:34;1.37;;;0.50;;
13408;SDS011;6775;49.574;11.170;2023-10-31T03:44:02;0.80;;;0.63;;
13408;SDS011;6775;49.574;11.170;2023-10-31T03:46:31;0.97;;;0.47;;
13408;SDS011;6775;49.574;11.170;2023-10-31T03:49:01;0.70;;;0.47;;
13408;SDS011;6775;49.574;11.170;2023-10-31T03:51:29;0.60;;;0.57;;
13408;SDS011;6775;49.574;11.170;2023-10-31T03:53:57;0.60;;;0.50;;
13408;SDS011;6775;49.574;11.170;2023-10-31T03:56:25;1.53;;;0.50;;
13408;SDS011;6775;49.574;11.170;2023-10-31T03:58:53;0.30;;;0.30;;
13408;SDS011;6775;49.574;11.170;2023-10-31T04:01:21;0.40;;;0.40;;
13408;SDS011;6775;49.574;11.170;2023-10-31T04:03:49;0.53;;;0.50;;
13408;SDS011;6775;49.574;11.170;2023-10-31T04:06:18;0.63;;;0.60;;
13408;SDS011;6775;49.574;11.170;2023-10-31T04:08:46;0.30;;;0.30;;
13408;SDS011;6775;49.574;11.170;2023-10-31T04:11:15;3.30;;;0.50;;
13408;SDS011;6775;49.574;11.170;2023-10-31T04:13:43;0.60;;;0.60;;
13408;SDS011;6775;49.574;11.170;2023-10-31T04:16:11;0.30;;;0.30;;
13408;SDS011;6775;49.574;11.170;2023-10-31T04:18:39;0.50;;;0.40;;
13408;SDS011;6775;49.574;11.170;2023-10-31T04:21:07;0.90;;;0.40;;
13408;SDS011;6775;49.574;11.170;2023-10-31T04:23:36;0.40;;;0.40;;
13408;SDS011;6775;49.574;11.170;2023-10-31T04:26:05;1.63;;;0.50;;
13408;SDS011;6775;49.574;11.170;2023-10-31T04:28:34;0.60;;;0.40;;
13408;SDS011;6775;49.574;11.170;2023-10-31T04:31:02;0.77;;;0.60;;
13408;SDS011;6775;49.574;11.170;2023-10-31T04:33:31;1.13;;;0.50;;
13408;SDS011;6775;49.574;11.170;2023-10-31T04:35:59;0.40;;;0.40;;
13408;SDS011;6775;49.574;11.170;2023-10-31T04:38:28;0.50;;;0.40;;
13408;SDS011;6775;49.574;11.170;2023-10-31T04:40:57;0.80;;;0.80;;
13408;SDS011;6775;49.574;11.170;2023-10-31T04:43:25;1.40;;;0.90;;
13408;SDS011;6775;49.574;11.170;2023-10-31T04:45:54;1.27;;;1.17;;
13408;SDS011;6775;49.574;11.170;2023-10-31T04:48:22;2.10;;;1.03;;
13408;SDS011;6775;49.574;11.170;2023-10-31T04:50:50;1.40;;;1.00;;
13408;SDS011;6775;49.574;11.170;2023-10-31T04:53:18;1.70;;;1.00;;
13408;SDS011;6775;49.574;11.170;2023-10-31T04:55:46;1.30;;;1.00;;
13408;SDS011;6775;49.574;11.170;2023-10-31T04:58:15;0.80;;;0.70;;
13408;SDS011;6775;49.574;11.170;2023-10-31T05:00:43;0.67;;;0.50;;
13408;SDS011;6775;49.574;11.170;2023-10-31T05:03:11;0.60;;;0.60;;
13408;SDS011;6775;49.574;11.170;2023-10-31T05:05:43;0.93;;;0.60;;
13408;SDS011;6775;49.574;11.170;2023-10-31T05:08:11;0.93;;;0.60;;
13408;SDS011;6775;49.574;11.170;2023-10-31T05:10:40;1.03;;;0.60;;
13408;SDS011;6775;49.574;11.170;2023-10-31T05:13:08;1.10;;;0.73;;
13408;SDS011;6775;49.574;11.170;2023-10-31T05:15:37;1.13;;;0.60;;
13408;SDS011;6775;49.574;11.170;2023-10-31T05:18:05;0.77;;;0.70;;
13408;SDS011;6775;49.574;11.170;2023-10-31T05:20:33;0.60;;;0.60;;
13408;SDS011;6775;49.574;11.170;2023-10-31T05:23:01;1.07;;;0.90;;
13408;SDS011;6775;49.574;11.170;2023-10-31T05:25:30;1.43;;;0.63;;
13408;SDS011;6775;49.574;11.170;2023-10-31T05:27:58;1.00;;;0.80;;
13408;SDS011;6775;49.574;11.170;2023-10-31T05:30:26;0.77;;;0.70;;
13408;SDS011;6775;49.574;11.170;2023-10-31T05:32:55;0.80;;;0.70;;
13408;SDS011;6775;49.574;11.170;2023-10-31T05:35:24;0.97;;;0.60;;
13408;SDS011;6775;49.574;11.170;2023-10-31T05:37:52;0.70;;;0.70;;
13408;SDS011;6775;49.574;11.170;2023-10-31T05:40:20;1.93;;;0.80;;
13408;SDS011;6775;49.574;11.170;2023-10-31T05:42:51;0.90;;;0.80;;
13408;SDS011;6775;49.574;11.170;2023-10-31T05:45:19;0.83;;;0.60;;
13408;SDS011;6775;49.574;11.170;2023-10-31T05:47:47;0.93;;;0.60;;
13408;SDS011;6775;49.574;11.170;2023-10-31T05:50:17;1.20;;;0.67;;
13408;SDS011;6775;49.574;11.170;2023-10-31T05:52:45;0.87;;;0.73;;
13408;SDS011;6775;49.574;11.170;2023-10-31T05:55:13;1.00;;;0.70;;
13408;SDS011;6775;49.574;11.170;2023-10-31T05:57:42;2.10;;;0.80;;
13408;SDS011;6775;49.574;11.170;2023-10-31T06:00:10;0.60;;;0.60;;
13408;SDS011;6775;49.574;11.170;2023-10-31T06:02:39;1.50;;;1.00;;
13408;SDS011;6775;49.574;11.170;2023-10-31T06:05:07;1.93;;;1.30;;
13408;SDS011;6775;49.574;11.170;2023-10-31T06:07:37;1.83;;;1.33;;
13408;SDS011;6775;49.574;11.170;2023-10-31T06:10:06;1.43;;;1.20;;
13408;SDS011;6775;49.574;11.170;2023-10-31T06:12:35;1.80;;;0.70;;
13408;SDS011;6775;49.574;11.170;2023-10-31T06:15:03;1.50;;;0.70;;
13408;SDS011;6775;49.574;11.170;2023-10-31T06:17:32;0.50;;;0.50;;
13408;SDS011;6775;49.574;11.170;2023-10-31T06:20:01;1.10;;;0.70;;
13408;SDS011;6775;49.574;11.170;2023-10-31T06:22:29;0.30;;;0.30;;
13408;SDS011;6775;49.574;11.170;2023-10-31T06:24:59;1.37;;;0.50;;
13408;SDS011;6775;49.574;11.170;2023-10-31T06:27:27;0.77;;;0.50;;
13408;SDS011;6775;49.574;11.170;2023-10-31T06:29:55;0.47;;;0.47;;
13408;SDS011;6775;49.574;11.170;2023-10-31T06:32:43;1.13;;;0.50;;
13408;SDS011;6775;49.574;11.170;2023-10-31T06:35:11;1.90;;;0.70;;
13408;SDS011;6775;49.574;11.170;2023-10-31T06:37:40;1.80;;;0.80;;
13408;SDS011;6775;49.574;11.170;2023-10-31T06:40:10;0.63;;;0.63;;
13408;SDS011;6775;49.574;11.170;2023-10-31T06:42:38;2.07;;;0.57;;
13408;SDS011;6775;49.574;11.170;2023-10-31T06:45:07;1.00;;;0.50;;
13408;SDS011;6775;49.574;11.170;2023-10-31T06:47:36;0.80;;;0.77;;
13408;SDS011;6775;49.574;11.170;2023-10-31T06:50:04;0.67;;;0.50;;
13408;SDS011;6775;49.574;11.170;2023-10-31T06:52:35;0.70;;;0.50;;
13408;SDS011;6775;49.574;11.170;2023-10-31T06:55:03;1.40;;;0.50;;
13408;SDS011;6775;49.574;11.170;2023-10-31T06:57:34;0.70;;;0.50;;
13408;SDS011;6775;49.574;11.170;2023-10-31T07:00:02;1.10;;;0.93;;
13408;SDS011;6775;49.574;11.170;2023-10-31T07:02:34;1.13;;;0.80;;
13408;SDS011;6775;49.574;11.170;2023-10-31T07:05:03;1.30;;;0.90;;
13408;SDS011;6775;49.574;11.170;2023-10-31T07:07:32;2.73;;;0.80;;
13408;SDS011;6775;49.574;11.170;2023-10-31T07:10:00;0.70;;;0.63;;
13408;SDS011;6775;49.574;11.170;2023-10-31T07:12:28;0.80;;;0.57;;
13408;SDS011;6775;49.574;11.170;2023-10-31T07:14:58;0.83;;;0.70;;
13408;SDS011;6775;49.574;11.170;2023-10-31T07:17:26;0.60;;;0.60;;
13408;SDS011;6775;49.574;11.170;2023-10-31T07:19:54;0.40;;;0.40;;
13408;SDS011;6775;49.574;11.170;2023-10-31T07:22:22;0.40;;;0.40;;
13408;SDS011;6775;49.574;11.170;2023-10-31T07:24:51;0.73;;;0.43;;
13408;SDS011;6775;49.574;11.170;2023-10-31T07:27:19;0.87;;;0.57;;
13408;SDS011;6775;49.574;11.170;2023-10-31T07:29:47;1.13;;;0.60;;
13408;SDS011;6775;49.574;11.170;2023-10-31T07:32:17;0.40;;;0.40;;
13408;SDS011;6775;49.574;11.170;2023-10-31T07:34:45;1.60;;;0.40;;
13408;SDS011;6775;49.574;11.170;2023-10-31T07:37:13;0.53;;;0.40;;
13408;SDS011;6775;49.574;11.170;2023-10-31T07:39:41;1.57;;;0.53;;
13408;SDS011;6775;49.574;11.170;2023-10-31T07:42:09;0.50;;;0.50;;
13408;SDS011;6775;49.574;11.170;2023-10-31T07:44:37;1.63;;;0.60;;
13408;SDS011;6775;49.574;11.170;2023-10-31T07:47:05;1.20;;;1.10;;
13408;SDS011;6775;49.574;11.170;2023-10-31T07:49:35;4.67;;;2.30;;
13408;SDS011;6775;49.574;11.170;2023-10-31T07:52:03;3.47;;;2.53;;
13408;SDS011;6775;49.574;11.170;2023-10-31T07:54:32;2.07;;;1.50;;
13408;SDS011;6775;49.574;11.170;2023-10-31T07:57:00;1.63;;;0.73;;
13408;SDS011;6775;49.574;11.170;2023-10-31T07:59:28;1.00;;;0.80;;
13408;SDS011;6775;49.574;11.170;2023-10-31T08:01:56;0.93;;;0.70;;
13408;SDS011;6775;49.574;11.170;2023-10-31T08:04:25;1.00;;;0.70;;
13408;SDS011;6775;49.574;11.170;2023-10-31T08:06:55;3.10;;;0.50;;
13408;SDS011;6775;49.574;11.170;2023-10-31T08:09:23;1.47;;;0.60;;
13408;SDS011;6775;49.574;11.170;2023-10-31T08:11:51;0.80;;;0.70;;
13408;SDS011;6775;49.574;11.170;2023-10-31T08:14:20;1.23;;;0.70;;
13408;SDS011;6775;49.574;11.170;2023-10-31T08:16:51;2.90;;;1.30;;
13408;SDS011;6775;49.574;11.170;2023-10-31T08:19:19;1.73;;;1.20;;
13408;SDS011;6775;49.574;11.170;2023-10-31T08:21:47;1.17;;;0.50;;
13408;SDS011;6775;49.574;11.170;2023-10-31T08:24:17;1.70;;;0.50;;
13408;SDS011;6775;49.574;11.170;2023-10-31T08:26:45;0.60;;;0.50;;
13408;SDS011;6775;49.574;11.170;2023-10-31T08:29:13;0.60;;;0.60;;
13408;SDS011;6775;49.574;11.170;2023-10-31T08:31:41;0.77;;;0.60;;
13408;SDS011;6775;49.574;11.170;2023-10-31T08:34:09;0.63;;;0.50;;
13408;SDS011;6775;49.574;11.170;2023-10-31T08:36:37;0.63;;;0.63;;
13408;SDS011;6775;49.574;11.170;2023-10-31T08:39:05;1.07;;;0.70;;
13408;SDS011;6775;49.574;11.170;2023-10-31T08:41:38;1.70;;;0.67;;
13408;SDS011;6775;49.574;11.170;2023-10-31T08:44:17;0.97;;;0.50;;
13408;SDS011;6775;49.574;11.170;2023-10-31T08:46:46;0.67;;;0.50;;
13408;SDS011;6775;49.574;11.170;2023-10-31T08:49:14;1.17;;;0.60;;
13408;SDS011;6775;49.574;11.170;2023-10-31T08:51:44;0.90;;;0.67;;
13408;SDS011;6775;49.574;11.170;2023-10-31T08:54:12;8.20;;;6.30;;
13408;SDS011;6775;49.574;11.170;2023-10-31T08:56:41;7.83;;;5.67;;
13408;SDS011;6775;49.574;11.170;2023-10-31T08:59:09;6.73;;;3.93;;
13408;SDS011;6775;49.574;11.170;2023-10-31T09:01:37;6.50;;;4.97;;
13408;SDS011;6775;49.574;11.170;2023-10-31T09:04:05;20.10;;;14.50;;
13408;SDS011;6775;49.574;11.170;2023-10-31T09:06:34;9.70;;;7.10;;
13408;SDS011;6775;49.574;11.170;2023-10-31T09:09:02;4.93;;;3.93;;
13408;SDS011;6775;49.574;11.170;2023-10-31T09:11:30;3.20;;;2.40;;
13408;SDS011;6775;49.574;11.170;2023-10-31T09:13:59;2.07;;;1.87;;
13408;SDS011;6775;49.574;11.170;2023-10-31T09:16:27;2.17;;;1.60;;
13408;SDS011;6775;49.574;11.170;2023-10-31T09:18:55;1.27;;;1.10;;
13408;SDS011;6775;49.574;11.170;2023-10-31T09:21:23;0.87;;;0.80;;
13408;SDS011;6775;49.574;11.170;2023-10-31T09:23:51;0.60;;;0.60;;
13408;SDS011;6775;49.574;11.170;2023-10-31T09:26:19;2.77;;;0.63;;
13408;SDS011;6775;49.574;11.170;2023-10-31T09:28:48;0.93;;;0.80;;
13408;SDS011;6775;49.574;11.170;2023-10-31T09:31:18;1.07;;;0.97;;
13408;SDS011;6775;49.574;11.170;2023-10-31T09:33:46;0.90;;;0.90;;
13408;SDS011;6775;49.574;11.170;2023-10-31T09:36:14;1.20;;;1.07;;
13408;SDS011;6775;49.574;11.170;2023-10-31T09:38:42;1.53;;;0.63;;
13408;SDS011;6775;49.574;11.170;2023-10-31T09:41:11;0.80;;;0.67;;
13408;SDS011;6775;49.574;11.170;2023-10-31T09:43:40;1.17;;;0.53;;
13408;SDS011;6775;49.574;11.170;2023-10-31T09:46:09;0.57;;;0.57;;
13408;SDS011;6775;49.574;11.170;2023-10-31T09:48:39;0.60;;;0.60;;
13408;SDS011;6775;49.574;11.170;2023-10-31T09:51:10;0.70;;;0.70;;
13408;SDS011;6775;49.574;11.170;2023-10-31T09:53:38;1.40;;;0.50;;
13408;SDS011;6775;49.574;11.170;2023-10-31T09:56:09;1.43;;;0.70;;
13408;SDS011;6775;49.574;11.170;2023-10-31T09:58:38;1.20;;;0.60;;
13408;SDS011;6775;49.574;11.170;2023-10-31T10:01:07;1.47;;;0.80;;
13408;SDS011;6775;49.574;11.170;2023-10-31T10:03:38;1.10;;;0.90;;
13408;SDS011;6775;49.574;11.170;2023-10-31T10:06:08;2.30;;;0.77;;
13408;SDS011;6775;49.574;11.170;2023-10-31T10:08:37;0.63;;;0.57;;
13408;SDS011;6775;49.574;11.170;2023-10-31T10:11:06;0.90;;;0.50;;
13408;SDS011;6775;49.574;11.170;2023-10-31T10:13:35;0.50;;;0.50;;
13408;SDS011;6775;49.574;11.170;2023-10-31T10:16:03;0.67;;;0.60;;
13408;SDS011;6775;49.574;11.170;2023-10-31T10:18:32;1.00;;;0.67;;
13408;SDS011;6775;49.574;11.170;2023-10-31T10:21:07;0.90;;;0.70;;
13408;SDS011;6775;49.574;11.170;2023-10-31T10:23:36;0.83;;;0.80;;
13408;SDS011;6775;49.574;11.170;2023-10-31T10:26:04;0.80;;;0.60;;
13408;SDS011;6775;49.574;11.170;2023-10-31T10:28:32;0.93;;;0.60;;
13408;SDS011;6775;49.574;11.170;2023-10-31T10:31:00;1.00;;;0.70;;
13408;SDS011;6775;49.574;11.170;2023-10-31T10:33:28;0.60;;;0.60;;
13408;SDS011;6775;49.574;11.170;2023-10-31T10:35:56;2.30;;;0.70;;
13408;SDS011;6775;49.574;11.170;2023-10-31T10:38:28;1.00;;;0.73;;
13408;SDS011;6775;49.574;11.170;2023-10-31T10:41:01;1.60;;;0.90;;
13408;SDS011;6775;49.574;11.170;2023-10-31T10:43:35;0.83;;;0.70;;
13408;SDS011;6775;49.574;11.170;2023-10-31T10:46:05;1.07;;;0.70;;
13408;SDS011;6775;49.574;11.170;2023-10-31T10:48:41;0.70;;;0.70;;
13408;SDS011;6775;49.574;11.170;2023-10-31T10:51:15;0.97;;;0.90;;
13408;SDS011;6775;49.574;11.170;2023-10-31T10:53:55;1.17;;;0.90;;
13408;SDS011;6775;49.574;11.170;2023-10-31T10:56:31;0.83;;;0.80;;
13408;SDS011;6775;49.574;11.170;2023-10-31T10:59:07;0.67;;;0.60;;
13408;SDS011;6775;49.574;11.170;2023-10-31T11:01:42;0.60;;;0.60;;
13408;SDS011;6775;49.574;11.170;2023-10-31T11:04:13;1.20;;;0.70;;
13408;SDS011;6775;49.574;11.170;2023-10-31T11:06:44;0.80;;;0.60;;
13408;SDS011;6775;49.574;11.170;2023-10-31T11:09:14;0.50;;;0.50;;
13408;SDS011;6775;49.574;11.170;2023-10-31T11:11:43;0.70;;;0.60;;
13408;SDS011;6775;49.574;11.170;2023-10-31T11:14:15;1.00;;;0.60;;
13408;SDS011;6775;49.574;11.170;2023-10-31T11:16:45;1.10;;;0.83;;
13408;SDS011;6775;49.574;11.170;2023-10-31T11:19:19;1.23;;;0.67;;
13408;SDS011;6775;49.574;11.170;2023-10-31T11:21:53;0.87;;;0.70;;
13408;SDS011;6775;49.574;11.170;2023-10-31T11:24:23;0.93;;;0.70;;
13408;SDS011;6775;49.574;11.170;2023-10-31T11:26:58;0.60;;;0.60;;
13408;SDS011;6775;49.574;11.170;2023-10-31T11:29:30;0.70;;;0.70;;
13408;SDS011;6775;49.574;11.170;2023-10-31T11:31:58;1.93;;;1.00;;
13408;SDS011;6775;49.574;11.170;2023-10-31T11:34:27;1.07;;;0.80;;
13408;SDS011;6775;49.574;11.170;2023-10-31T11:42:48;3.33;;;1.30;;
13408;SDS011;6775;49.574;11.170;2023-10-31T11:45:24;1.53;;;0.90;;
13408;SDS011;6775;49.574;11.170;2023-10-31T11:47:58;1.27;;;1.00;;
13408;SDS011;6775;49.574;11.170;2023-10-31T11:50:26;1.40;;;1.00;;
13408;SDS011;6775;49.574;11.170;2023-10-31T11:53:01;0.73;;;0.70;;
13408;SDS011;6775;49.574;11.170;2023-10-31T11:55:34;0.80;;;0.70;;
13408;SDS011;6775;49.574;11.170;2023-10-31T11:58:14;1.47;;;0.90;;
13408;SDS011;6775;49.574;11.170;2023-10-31T12:00:47;0.97;;;0.87;;
13408;SDS011;6775;49.574;11.170;2023-10-31T12:03:18;0.63;;;0.63;;
13408;SDS011;6775;49.574;11.170;2023-10-31T12:05:51;0.80;;;0.80;;
13408;SDS011;6775;49.574;11.170;2023-10-31T12:08:25;0.87;;;0.60;;
13408;SDS011;6775;49.574;11.170;2023-10-31T12:11:09;1.23;;;0.70;;
13408;SDS011;6775;49.574;11.170;2023-10-31T12:13:39;1.70;;;0.80;;
13408;SDS011;6775;49.574;11.170;2023-10-31T12:16:09;2.20;;;0.70;;
13408;SDS011;6775;49.574;11.170;2023-10-31T12:18:39;1.60;;;0.70;;
13408;SDS011;6775;49.574;11.170;2023-10-31T12:21:07;0.93;;;0.80;;
13408;SDS011;6775;49.574;11.170;2023-10-31T12:23:37;2.60;;;1.00;;
13408;SDS011;6775;49.574;11.170;2023-10-31T12:26:05;2.17;;;1.00;;
13408;SDS011;6775;49.574;11.170;2023-10-31T12:28:34;1.70;;;1.00;;
13408;SDS011;6775;49.574;11.170;2023-10-31T12:31:04;0.93;;;0.73;;
13408;SDS011;6775;49.574;11.170;2023-10-31T12:33:33;1.10;;;0.80;;
13408;SDS011;6775;49.574;11.170;2023-10-31T12:36:01;1.10;;;1.00;;
13408;SDS011;6775;49.574;11.170;2023-10-31T12:38:32;3.90;;;1.13;;
13408;SDS011;6775;49.574;11.170;2023-10-31T12:41:01;1.57;;;0.97;;
13408;SDS011;6775;49.574;11.170;2023-10-31T12:43:31;1.80;;;0.80;;
13408;SDS011;6775;49.574;11.170;2023-10-31T12:46:02;2.00;;;1.00;;
13408;SDS011;6775;49.574;11.170;2023-10-31T12:48:56;1.90;;;0.80;;
13408;SDS011;6775;49.574;11.170;2023-10-31T12:51:24;2.27;;;1.10;;
13408;SDS011;6775;49.574;11.170;2023-10-31T12:53:53;2.17;;;1.07;;
13408;SDS011;6775;49.574;11.170;2023-10-31T12:56:34;2.10;;;1.20;;
13408;SDS011;6775;49.574;11.170;2023-10-31T12:59:05;1.20;;;1.10;;
13408;SDS011;6775;49.574;11.170;2023-10-31T13:01:36;1.30;;;0.90;;
13408;SDS011;6775;49.574;11.170;2023-10-31T13:04:10;1.33;;;0.73;;
13408;SDS011;6775;49.574;11.170;2023-10-31T13:06:39;0.60;;;0.60;;
13408;SDS011;6775;49.574;11.170;2023-10-31T13:09:07;0.73;;;0.73;;
13408;SDS011;6775;49.574;11.170;2023-10-31T13:11:39;1.50;;;0.90;;
13408;SDS011;6775;49.574;11.170;2023-10-31T13:14:07;1.70;;;1.03;;
13408;SDS011;6775;49.574;11.170;2023-10-31T13:16:37;1.47;;;1.00;;
13408;SDS011;6775;49.574;11.170;2023-10-31T13:19:05;1.10;;;1.00;;
13408;SDS011;6775;49.574;11.170;2023-10-31T13:21:33;2.17;;;1.00;;
13408;SDS011;6775;49.574;11.170;2023-10-31T13:24:01;1.37;;;1.10;;
13408;SDS011;6775;49.574;11.170;2023-10-31T13:26:30;1.30;;;1.20;;
13408;SDS011;6775;49.574;11.170;2023-10-31T13:28:58;3.07;;;0.87;;
13408;SDS011;6775;49.574;11.170;2023-10-31T13:31:26;1.93;;;0.90;;
13408;SDS011;6775;49.574;11.170;2023-10-31T13:33:55;2.00;;;1.50;;
13408;SDS011;6775;49.574;11.170;2023-10-31T13:36:23;0.87;;;0.87;;
13408;SDS011;6775;49.574;11.170;2023-10-31T13:38:55;1.67;;;1.53;;
13408;SDS011;6775;49.574;11.170;2023-10-31T13:41:23;2.40;;;1.10;;
13408;SDS011;6775;49.574;11.170;2023-10-31T13:43:52;1.97;;;0.80;;
13408;SDS011;6775;49.574;11.170;2023-10-31T13:46:20;1.47;;;1.20;;
13408;SDS011;6775;49.574;11.170;2023-10-31T13:48:59;2.50;;;1.10;;
13408;SDS011;6775;49.574;11.170;2023-10-31T13:51:27;1.60;;;0.80;;
13408;SDS011;6775;49.574;11.170;2023-10-31T13:53:55;1.23;;;0.87;;
13408;SDS011;6775;49.574;11.170;2023-10-31T13:56:24;2.37;;;0.90;;
13408;SDS011;6775;49.574;11.170;2023-10-31T13:58:52;2.07;;;0.90;;
13408;SDS011;6775;49.574;11.170;2023-10-31T14:01:20;1.63;;;0.90;;
13408;SDS011;6775;49.574;11.170;2023-10-31T14:03:51;2.10;;;0.97;;
13408;SDS011;6775;49.574;11.170;2023-10-31T14:06:21;2.03;;;0.77;;
13408;SDS011;6775;49.574;11.170;2023-10-31T14:08:51;1.67;;;0.90;;
13408;SDS011;6775;49.574;11.170;2023-10-31T14:11:19;1.20;;;0.67;;
13408;SDS011;6775;49.574;11.170;2023-10-31T14:13:47;3.07;;;1.00;;
13408;SDS011;6775;49.574;11.170;2023-10-31T14:16:16;0.97;;;0.60;;
13408;SDS011;6775;49.574;11.170;2023-10-31T14:18:44;1.33;;;0.80;;
13408;SDS011;6775;49.574;11.170;2023-10-31T14:21:14;1.60;;;0.70;;
13408;SDS011;6775;49.574;11.170;2023-10-31T14:23:43;1.50;;;0.90;;
13408;SDS011;6775;49.574;11.170;2023-10-31T14:26:24;1.10;;;0.60;;
13408;SDS011;6775;49.574;11.170;2023-10-31T14:28:54;2.63;;;1.07;;
13408;SDS011;6775;49.574;11.170;2023-10-31T14:31:22;0.93;;;0.70;;
13408;SDS011;6775;49.574;11.170;2023-10-31T14:33:50;3.00;;;1.10;;
13408;SDS011;6775;49.574;11.170;2023-10-31T14:36:18;1.77;;;0.70;;
13408;SDS011;6775;49.574;11.170;2023-10-31T14:38:47;1.97;;;0.93;;
13408;SDS011;6775;49.574;11.170;2023-10-31T14:41:15;1.40;;;1.10;;
13408;SDS011;6775;49.574;11.170;2023-10-31T14:43:44;4.10;;;1.27;;
13408;SDS011;6775;49.574;11.170;2023-10-31T14:46:12;1.10;;;0.90;;
13408;SDS011;6775;49.574;11.170;2023-10-31T14:48:40;1.97;;;0.93;;
13408;SDS011;6775;49.574;11.170;2023-10-31T14:51:08;0.80;;;0.70;;
13408;SDS011;6775;49.574;11.170;2023-10-31T14:53:36;9.53;;;5.13;;
13408;SDS011;6775;49.574;11.170;2023-10-31T14:56:06;5.47;;;2.70;;
13408;SDS011;6775;49.574;11.170;2023-10-31T14:58:35;7.17;;;4.87;;
13408;SDS011;6775;49.574;11.170;2023-10-31T15:01:03;4.70;;;2.63;;
13408;SDS011;6775;49.574;11.170;2023-10-31T15:03:32;4.33;;;3.07;;
13408;SDS011;6775;49.574;11.170;2023-10-31T15:06:01;2.00;;;1.50;;